
Distance (Route):
Temperature : 20.6°C
Humidity : 42.8%
Pressure : 0hPa| Receiver | Date | Latitude | Longitude | Direction | Speed | Altitude | Climb | Temperature | Humidity | Pressure | Voltage | Killtimer | Uptime | BKT | XDATA |
|---|---|---|---|---|---|---|---|---|---|---|---|---|---|---|---|
| LZ4TU-5 | 2026-09-04 12:59:57 | 43.63667 | 22.63840 | 130° | 24km/h | 1259m | -15.4m/s | 20.6°C | 42.8% | 0hPa | 0V | 00:00:00 | 00:00:00 | 00:00:00 | |
| LZ4TU-5 | 2026-09-04 12:59:52 | 43.63684 | 22.63807 | 126° | 24km/h | 1339m | -15.2m/s | 19.8°C | 44.3% | 0hPa | 0V | 00:00:00 | 00:00:00 | 00:00:00 | |
| LZ4TU-5 | 2026-09-04 12:59:43 | 43.63713 | 22.63739 | 121° | 29km/h | 1488m | -15.9m/s | 18.4°C | 46.9% | 0hPa | 0V | 00:00:00 | 00:00:00 | 00:00:00 | |
| LZ4TU-5 | 2026-09-04 12:59:39 | 43.63730 | 22.63695 | 122° | 29km/h | 1569m | -15.5m/s | 17.6°C | 48.3% | 0hPa | 0V | 00:00:00 | 00:00:00 | 00:00:00 | |
| LZ4TU-5 | 2026-09-04 12:59:33 | 43.63750 | 22.63651 | 118° | 29km/h | 1645m | -14.9m/s | 16.9°C | 49.7% | 0hPa | 0V | 00:00:00 | 00:00:00 | 00:00:00 | |
| LZ4TU-5 | 2026-09-04 12:59:28 | 43.63767 | 22.63607 | 123° | 27km/h | 1714m | -14.7m/s | 16.2°C | 51.0% | 0hPa | 0V | 00:00:00 | 00:00:00 | 00:00:00 | |
| LZ4TU-5 | 2026-09-04 12:59:23 | 43.63783 | 22.63567 | 119° | 26km/h | 1791m | -14.6m/s | 15.5°C | 52.3% | 0hPa | 0V | 00:00:00 | 00:00:00 | 00:00:00 | |
| LZ4TU-5 | 2026-09-04 12:59:18 | 43.63799 | 22.63532 | 123° | 22km/h | 1867m | -14.5m/s | 14.9°C | 53.7% | 0hPa | 0V | 00:00:00 | 00:00:00 | 00:00:00 | |
| LZ4TU-5 | 2026-09-04 12:59:13 | 43.63814 | 22.63498 | 124° | 22km/h | 1933m | -14.9m/s | 14.2°C | 55.6% | 0hPa | 0V | 00:00:00 | 00:00:00 | 00:00:00 | |
| LZ4TU-5 | 2026-09-04 12:59:08 | 43.63829 | 22.63464 | 122° | 24km/h | 2010m | -14.8m/s | 13.4°C | 57.6% | 0hPa | 0V | 00:00:00 | 00:00:00 | 00:00:00 | |
| LZ4TU-5 | 2026-09-04 12:59:03 | 43.63845 | 22.63429 | 127° | 26km/h | 2090m | -15.3m/s | 12.7°C | 59.3% | 0hPa | 0V | 00:00:00 | 00:00:00 | 00:00:00 | |
| LZ4TU-5 | 2026-09-04 12:58:58 | 43.63861 | 22.63396 | 127° | 22km/h | 2170m | -15.3m/s | 12.0°C | 61.6% | 0hPa | 0V | 00:00:00 | 00:00:00 | 00:00:00 | |
| LZ4TU-5 | 2026-09-04 12:58:54 | 43.63873 | 22.63375 | 134° | 16km/h | 2231m | -15.7m/s | 11.4°C | 63.7% | 0hPa | 0V | 00:00:00 | 00:00:00 | 00:00:00 | |
| LZ4TU-5 | 2026-09-04 12:58:50 | 43.63888 | 22.63357 | 142° | 16km/h | 2286m | -16.1m/s | 10.8°C | 65.7% | 0hPa | 0V | 00:00:00 | 00:00:00 | 00:00:00 | |
| LZ4TU-5 | 2026-09-04 12:58:45 | 43.63904 | 22.63334 | 132° | 20km/h | 2367m | -15.4m/s | 10.0°C | 68.0% | 0hPa | 0V | 00:00:00 | 00:00:00 | 00:00:00 | |
| LZ4TU-5 | 2026-09-04 12:58:40 | 43.63922 | 22.63306 | 129° | 24km/h | 2449m | -15.2m/s | 9.3°C | 70.1% | 0hPa | 0V | 00:00:00 | 00:00:00 | 00:00:00 | |
| LZ4TU-5 | 2026-09-04 12:58:36 | 43.63935 | 22.63282 | 125° | 18km/h | 2511m | -14.1m/s | 8.9°C | 69.2% | 0hPa | 0V | 00:00:00 | 00:00:00 | 00:00:00 | |
| LZ4TU-5 | 2026-09-04 12:58:27 | 43.63962 | 22.63230 | 125° | 22km/h | 2637m | -15.6m/s | 7.5°C | 75.6% | 0hPa | 0V | 00:00:00 | 00:00:00 | 00:00:00 | |
| LZ4TU-5 | 2026-09-04 12:58:22 | 43.63977 | 22.63195 | 125° | 24km/h | 2717m | -15.4m/s | 7.1°C | 70.4% | 0hPa | 0V | 00:00:00 | 00:00:00 | 00:00:00 | |
| LZ4TU-5 | 2026-09-04 12:58:18 | 43.63992 | 22.63167 | 127° | 24km/h | 2779m | -15.5m/s | 6.8°C | 63.7% | 0hPa | 0V | 00:00:00 | 00:00:00 | 00:00:00 | |
| LZ4TU-5 | 2026-09-04 12:58:13 | 43.64011 | 22.63136 | 137° | 22km/h | 2847m | -14.5m/s | 5.9°C | 67.1% | 0hPa | 0V | 00:00:00 | 00:00:00 | 00:00:00 | |
| LZ4TU-5 | 2026-09-04 12:58:09 | 43.64031 | 22.63115 | 153° | 29km/h | 2905m | -14.6m/s | 5.4°C | 68.6% | 0hPa | 0V | 00:00:00 | 00:00:00 | 00:00:00 | |
| LZ4TU-5 | 2026-09-04 12:58:04 | 43.64065 | 22.63092 | 154° | 29km/h | 2979m | -14.1m/s | 5.6°C | 55.7% | 0hPa | 0V | 00:00:00 | 00:00:00 | 00:00:00 | |
| LZ4TU-5 | 2026-09-04 12:57:59 | 43.64096 | 22.63068 | 151° | 27km/h | 3049m | -14.1m/s | 5.2°C | 53.8% | 0hPa | 0V | 00:00:00 | 00:00:00 | 00:00:00 | |
| LZ4TU-5 | 2026-09-04 12:57:54 | 43.64126 | 22.63044 | 155° | 27km/h | 3115m | -14.1m/s | 4.6°C | 54.2% | 0hPa | 0V | 00:00:00 | 00:00:00 | 00:00:00 | |
| LZ4TU-5 | 2026-09-04 12:57:50 | 43.64157 | 22.63022 | 157° | 27km/h | 3188m | -14.4m/s | 4.0°C | 53.6% | 0hPa | 0V | 00:00:00 | 00:00:00 | 00:00:00 | |
| LZ4TU-5 | 2026-09-04 12:54:47 | 43.66022 | 22.62680 | 185° | 64km/h | 5934m | -15.3m/s | -9.5°C | 46.8% | 0hPa | 0V | 00:00:00 | 00:00:00 | 00:00:00 | |
| LZ4TU-5 | 2026-09-04 12:54:42 | 43.66103 | 22.62686 | 185° | 66km/h | 6019m | -15.9m/s | -10.0°C | 47.7% | 0hPa | 0V | 00:00:00 | 00:00:00 | 00:00:00 | |
| LZ4TU-5 | 2026-09-04 12:52:58 | 43.68151 | 22.62814 | 183° | 88km/h | 7764m | -17.8m/s | -21.0°C | 41.0% | 0hPa | 0V | 00:00:00 | 00:00:00 | 00:00:00 | |
| LZ4TU-5 | 2026-09-04 12:52:53 | 43.68263 | 22.62823 | 183° | 86km/h | 7851m | -16.5m/s | -21.6°C | 0% | 0hPa | 0V | 00:00:00 | 00:00:00 | 00:00:00 | |
| LZ4TU-5 | 2026-09-04 12:50:54 | 43.71060 | 22.63170 | 185° | 100km/h | 9944m | -17.0m/s | -39.6°C | 48.1% | 0hPa | 0V | 00:00:00 | 00:00:00 | 00:00:00 | |
| LZ4TU-5 | 2026-09-04 12:50:49 | 43.71186 | 22.63186 | 187° | 102km/h | 10042m | -16.2m/s | -40.4°C | 50.0% | 0hPa | 0V | 00:00:00 | 00:00:00 | 00:00:00 | |
| LZ4TU-5 | 2026-09-04 12:49:05 | 43.74355 | 22.63804 | 189° | 146km/h | 12064m | -21.3m/s | -56.4°C | 29.8% | 0hPa | 0V | 00:00:00 | 00:00:00 | 00:00:00 | |
| LZ4TU-5 | 2026-09-04 12:49:00 | 43.74541 | 22.63840 | 189° | 150km/h | 12168m | -21.5m/s | -57.3°C | 27.8% | 0hPa | 0V | 00:00:00 | 00:00:00 | 00:00:00 | |
| LZ4TU-5 | 2026-09-04 12:47:04 | 43.89262 | 22.63716 | 0° | 0km/h | 35489m | 0.0m/s | -56.3°C | 0.0% | 0hPa | 0V | 00:00:00 | 00:00:00 | 00:00:00 | |
| LZ4TU-5 | 2026-09-04 12:46:59 | 43.89080 | 22.63662 | 12° | 159km/h | 35385m | 17.2m/s | -56.9°C | 0.0% | 0hPa | 0V | 00:00:00 | 00:00:00 | 00:00:00 | |
| LZ4TU-5 | 2026-09-04 12:45:04 | 43.85353 | 22.62943 | 6° | 162km/h | 33217m | 15.9m/s | -55.1°C | 0.0% | 0hPa | 0V | 00:00:00 | 00:00:00 | 00:00:00 | |
| LZ4TU-5 | 2026-09-04 12:44:59 | 43.85156 | 22.62918 | 6° | 170km/h | 33127m | 15.7m/s | -55.3°C | 0.0% | 0hPa | 0V | 00:00:00 | 00:00:00 | 00:00:00 | |
| LZ4TU-5 | 2026-09-04 12:43:06 | 43.81603 | 22.62724 | 356° | 128km/h | 31937m | 9.0m/s | -53.2°C | 0.0% | 0hPa | 0V | 00:00:00 | 00:00:00 | 00:00:00 | |
| LZ4TU-5 | 2026-09-04 12:43:01 | 43.81411 | 22.62752 | 357° | 126km/h | 31840m | 7.6m/s | -52.3°C | 0.0% | 0hPa | 0V | 00:00:00 | 00:00:00 | 00:00:00 | |
| LZ4TU-5 | 2026-09-04 12:42:54 | 43.81208 | 22.62770 | 358° | 135km/h | 31855m | 9.2m/s | -52.8°C | 0.0% | 0hPa | 0V | 00:00:00 | 00:00:00 | 00:00:00 | |
| LZ4TU-5 | 2026-09-04 12:42:49 | 43.81051 | 22.62791 | 359° | 131km/h | 31828m | 9.6m/s | -51.6°C | 0.0% | 0hPa | 0V | 00:00:00 | 00:00:00 | 00:00:00 | |
| LZ4TU-5 | 2026-09-04 12:42:39 | 43.80621 | 22.62797 | 0° | 0km/h | 31470m | 0.0m/s | -50.0°C | 0.0% | 0hPa | 0V | 00:00:00 | 00:00:00 | 00:00:00 | |
| LZ4TU-5 | 2026-09-04 12:42:32 | 43.80431 | 22.62790 | 0° | 0km/h | 31474m | 0.0m/s | -48.5°C | 0.0% | 0hPa | 0V | 00:00:00 | 00:00:00 | 00:00:00 | |
| LZ4TU-5 | 2026-09-04 12:42:27 | 43.80289 | 22.62803 | 0° | 0km/h | 31481m | 0.0m/s | -48.5°C | 0.0% | 0hPa | 0V | 00:00:00 | 00:00:00 | 00:00:00 | |
| LZ4TU-5 | 2026-09-04 12:42:23 | 43.80183 | 22.62800 | 0° | 0km/h | 31473m | 0.0m/s | -48.6°C | 0.0% | 0hPa | 0V | 00:00:00 | 00:00:00 | 00:00:00 | |
| LZ4TU-5 | 2026-09-04 12:42:17 | 43.80025 | 22.62799 | 361° | 102km/h | 31467m | 4.1m/s | -47.8°C | 0.0% | 0hPa | 0V | 00:00:00 | 00:00:00 | 00:00:00 | |
| OM5KV | 2026-09-04 12:40:31 | 43.77275 | 22.62584 | 244° | 26km/h | 31253m | 7.6m/s | -41.3°C | 1.7% | 0hPa | 0V | 00:00:00 | 00:00:00 | 00:00:00 | |
| OM5KV | 2026-09-04 12:40:25 | 43.77292 | 22.62630 | 257° | 18km/h | 31208m | 7.7m/s | -41.5°C | 1.9% | 0hPa | 0V | 00:00:00 | 00:00:00 | 00:00:00 | |
| OM5KV | 2026-09-04 12:40:24 | 43.77294 | 22.62636 | 262° | 16km/h | 31201m | 7.7m/s | -41.5°C | 1.9% | 0hPa | 0V | 00:00:00 | 00:00:00 | 00:00:00 | |
| LZ4TU-5 | 2026-09-04 12:40:23 | 43.77295 | 22.62640 | 260° | 15km/h | 31194m | 7.6m/s | -41.5°C | 1.9% | 0hPa | 0V | 00:00:00 | 00:00:00 | 00:00:00 | |
| LZ4TU-5 | 2026-09-04 12:40:20 | 43.77299 | 22.62646 | 186° | 13km/h | 31162m | 7.2m/s | -41.6°C | 1.9% | 0hPa | 0V | 00:00:00 | 00:00:00 | 00:00:00 | |
| OM5KV | 2026-09-04 12:40:19 | 43.77299 | 22.62646 | 186° | 13km/h | 31162m | 7.2m/s | -41.6°C | 1.9% | 0hPa | 0V | 00:00:00 | 00:00:00 | 00:00:00 | |
| OM5KV | 2026-09-04 12:40:16 | 43.77312 | 22.62643 | 203° | 7km/h | 31140m | 7.0m/s | -41.7°C | 1.9% | 0hPa | 0V | 00:00:00 | 00:00:00 | 00:00:00 | |
| OM5KV | 2026-09-04 12:40:12 | 43.77316 | 22.62650 | 263° | 15km/h | 31112m | 7.2m/s | -41.8°C | 1.9% | 0hPa | 0V | 00:00:00 | 00:00:00 | 00:00:00 | |
| OM5KV | 2026-09-04 12:40:06 | 43.77319 | 22.62661 | 103° | 13km/h | 31067m | 6.8m/s | -42.1°C | 2.0% | 0hPa | 0V | 00:00:00 | 00:00:00 | 00:00:00 | |
| OM5KV | 2026-09-04 12:40:05 | 43.77318 | 22.62656 | 110° | 15km/h | 31061m | 6.8m/s | -42.2°C | 2.0% | 0hPa | 0V | 00:00:00 | 00:00:00 | 00:00:00 | |
| OM5KV | 2026-09-04 12:39:59 | 43.77321 | 22.62651 | 333° | 5km/h | 31022m | 6.9m/s | -42.4°C | 2.0% | 0hPa | 0V | 00:00:00 | 00:00:00 | 00:00:00 | |
| OM5KV | 2026-09-04 12:39:49 | 43.77316 | 22.62646 | 306° | 4km/h | 30955m | 7.1m/s | -42.7°C | 2.0% | 0hPa | 0V | 00:00:00 | 00:00:00 | 00:00:00 | |
| OM5KV | 2026-09-04 12:39:43 | 43.77302 | 22.62642 | 353° | 9km/h | 30908m | 6.9m/s | -43.0°C | 2.1% | 0hPa | 0V | 00:00:00 | 00:00:00 | 00:00:00 | |
| OM5KV | 2026-09-04 12:39:41 | 43.77297 | 22.62642 | 347° | 7km/h | 30892m | 6.9m/s | -43.0°C | 2.1% | 0hPa | 0V | 00:00:00 | 00:00:00 | 00:00:00 | |
| OM5KV | 2026-09-04 12:39:32 | 43.77267 | 22.62639 | 20° | 16km/h | 30829m | 7.2m/s | -43.2°C | 2.1% | 0hPa | 0V | 00:00:00 | 00:00:00 | 00:00:00 | |
| LZ4TU-5 | 2026-09-04 12:38:16 | 43.77249 | 22.62838 | 231° | 13km/h | 30294m | 6.8m/s | -42.6°C | 2.1% | 0hPa | 0V | 00:00:00 | 00:00:00 | 00:00:00 | |
| LZ4TU-5 | 2026-09-04 12:38:11 | 43.77264 | 22.62861 | 228° | 16km/h | 30260m | 6.7m/s | -42.6°C | 2.1% | 0hPa | 0V | 00:00:00 | 00:00:00 | 00:00:00 | |
| OM5KV | 2026-09-04 12:37:01 | 43.77486 | 22.62702 | 137° | 9km/h | 29752m | 7.2m/s | -42.5°C | 1.9% | 0hPa | 0V | 00:00:00 | 00:00:00 | 00:00:00 | |
| LZ4TU-5 | 2026-09-04 12:36:17 | 43.77629 | 22.62556 | 151° | 18km/h | 29444m | 7.6m/s | -42.2°C | 1.7% | 0hPa | 0V | 00:00:00 | 00:00:00 | 00:00:00 | |
| LZ4TU-5 | 2026-09-04 12:36:12 | 43.77658 | 22.62535 | 171° | 11km/h | 29404m | 7.2m/s | -42.3°C | 0% | 0hPa | 0V | 00:00:00 | 00:00:00 | 00:00:00 | |
| LZ4TU-5 | 2026-09-04 12:34:07 | 43.77545 | 22.62219 | 87° | 4km/h | 28531m | 6.7m/s | -43.5°C | 1.7% | 0hPa | 0V | 00:00:00 | 00:00:00 | 00:00:00 | |
| LZ4TU-5 | 2026-09-04 12:31:57 | 43.77237 | 22.61935 | 358° | 33km/h | 27628m | 6.8m/s | -45.4°C | 1.7% | 0hPa | 0V | 00:00:00 | 00:00:00 | 00:00:00 | |
| LZ4TU-5 | 2026-09-04 12:31:52 | 43.77200 | 22.61940 | 21° | 16km/h | 27593m | 6.9m/s | -45.3°C | 0% | 0hPa | 0V | 00:00:00 | 00:00:00 | 00:00:00 | |
| LZ4TU-5 | 2026-09-04 12:29:56 | 43.76689 | 22.62050 | 333° | 26km/h | 26807m | 6.8m/s | -45.4°C | 1.4% | 0hPa | 0V | 00:00:00 | 00:00:00 | 00:00:00 | |
| LZ4TU-5 | 2026-09-04 12:29:52 | 43.76664 | 22.62060 | 2° | 16km/h | 26779m | 6.9m/s | -45.5°C | 1.4% | 0hPa | 0V | 00:00:00 | 00:00:00 | 00:00:00 | |
| LZ4TU-5 | 2026-09-04 12:27:57 | 43.76653 | 22.62047 | 123° | 26km/h | 25995m | 6.4m/s | -47.7°C | 1.1% | 0hPa | 0V | 00:00:00 | 00:00:00 | 00:00:00 | |
| LZ4TU-5 | 2026-09-04 12:27:52 | 43.76670 | 22.62024 | 86° | 7km/h | 25962m | 6.2m/s | -47.8°C | 1.1% | 0hPa | 0V | 00:00:00 | 00:00:00 | 00:00:00 | |
| LZ4TU-5 | 2026-09-04 12:25:48 | 43.76664 | 22.61918 | 361° | 15km/h | 25153m | 6.2m/s | -49.6°C | 1.2% | 0hPa | 0V | 00:00:00 | 00:00:00 | 00:00:00 | |
| LZ4TU-5 | 2026-09-04 12:25:43 | 43.76642 | 22.61914 | 44° | 9km/h | 25119m | 6.4m/s | -49.7°C | 1.2% | 0hPa | 0V | 00:00:00 | 00:00:00 | 00:00:00 | |
| LZ4TU-5 | 2026-09-04 12:23:40 | 43.76250 | 22.61917 | 261° | 7km/h | 24325m | 6.2m/s | -50.8°C | 0.7% | 0hPa | 0V | 00:00:00 | 00:00:00 | 00:00:00 | |
| LZ4TU-5 | 2026-09-04 12:23:35 | 43.76253 | 22.61938 | 257° | 13km/h | 24293m | 6.0m/s | -51.1°C | 0.8% | 0hPa | 0V | 00:00:00 | 00:00:00 | 00:00:00 | |
| LZ4TU-5 | 2026-09-04 12:21:29 | 43.76132 | 22.62224 | 236° | 18km/h | 23486m | 6.4m/s | -53.5°C | 0.9% | 0hPa | 0V | 00:00:00 | 00:00:00 | 00:00:00 | |
| LZ4TU-5 | 2026-09-04 12:21:24 | 43.76146 | 22.62246 | 228° | 9km/h | 23453m | 6.3m/s | -53.5°C | 0.9% | 0hPa | 0V | 00:00:00 | 00:00:00 | 00:00:00 | |
| LZ4TU-5 | 2026-09-04 12:19:30 | 43.76114 | 22.62293 | 286° | 15km/h | 22716m | 5.8m/s | -54.3°C | 0.9% | 0hPa | 0V | 00:00:00 | 00:00:00 | 00:00:00 | |
| LZ4TU-5 | 2026-09-04 12:19:26 | 43.76110 | 22.62314 | 288° | 13km/h | 22690m | 5.8m/s | -54.4°C | 0.9% | 0hPa | 0V | 00:00:00 | 00:00:00 | 00:00:00 | |
| LZ4TU-5 | 2026-09-04 12:17:39 | 43.76242 | 22.62519 | 10° | 18km/h | 22052m | 6.5m/s | -52.5°C | 0.8% | 0hPa | 0V | 00:00:00 | 00:00:00 | 00:00:00 | |
| LZ4TU-5 | 2026-09-04 12:17:34 | 43.76219 | 22.62514 | 16° | 15km/h | 22020m | 9.4m/s | -52.5°C | 0.7% | 0hPa | 0V | 00:00:00 | 00:00:00 | 00:00:00 | |
| LZ4TU-5 | 2026-09-04 12:15:39 | 43.76233 | 22.62212 | 66° | 18km/h | 21312m | 6.4m/s | -54.1°C | 0.6% | 0hPa | 0V | 00:00:00 | 00:00:00 | 00:00:00 | |
| LZ4TU-5 | 2026-09-04 12:15:34 | 43.76235 | 22.62180 | 88° | 22km/h | 21284m | 4.7m/s | -54.0°C | 0.5% | 0hPa | 0V | 00:00:00 | 00:00:00 | 00:00:00 | |
| LZ4TU-5 | 2026-09-04 12:13:34 | 43.76036 | 22.61969 | 38° | 11km/h | 20562m | 5.3m/s | -55.3°C | 0.7% | 0hPa | 0V | 00:00:00 | 00:00:00 | 00:00:00 | |
| LZ4TU-5 | 2026-09-04 12:13:29 | 43.76029 | 22.61965 | 360° | 15km/h | 20533m | 7.2m/s | -55.2°C | 0.6% | 0hPa | 0V | 00:00:00 | 00:00:00 | 00:00:00 | |
| LZ4TU-5 | 2026-09-04 12:11:24 | 43.75944 | 22.61983 | 95° | 33km/h | 19756m | 6.3m/s | -54.9°C | 0.7% | 0hPa | 0V | 00:00:00 | 00:00:00 | 00:00:00 | |
| LZ4TU-5 | 2026-09-04 12:11:19 | 43.75950 | 22.61943 | 119° | 26km/h | 19727m | 7.4m/s | -55.0°C | 0.7% | 0hPa | 0V | 00:00:00 | 00:00:00 | 00:00:00 | |
| LZ4TU-5 | 2026-09-04 12:09:23 | 43.75962 | 22.61240 | 90° | 24km/h | 19055m | 2.7m/s | -57.2°C | 0.9% | 0hPa | 0V | 00:00:00 | 00:00:00 | 00:00:00 | |
| LZ4TU-5 | 2026-09-04 12:09:18 | 43.75955 | 22.61194 | 64° | 22km/h | 19025m | 5.7m/s | -57.3°C | 0.9% | 0hPa | 0V | 00:00:00 | 00:00:00 | 00:00:00 | |
| LZ4TU-5 | 2026-09-04 12:07:17 | 43.75495 | 22.60362 | 70° | 22km/h | 18350m | 7.8m/s | -55.2°C | 0.4% | 0hPa | 0V | 00:00:00 | 00:00:00 | 00:00:00 | |
| LZ4TU-5 | 2026-09-04 12:07:12 | 43.75476 | 22.60324 | 25° | 9km/h | 18318m | 5.7m/s | -55.1°C | 0.4% | 0hPa | 0V | 00:00:00 | 00:00:00 | 00:00:00 | |
| LZ4TU-5 | 2026-09-04 12:05:03 | 43.75740 | 22.59549 | 102° | 13km/h | 17572m | 5.7m/s | -58.1°C | 1.3% | 0hPa | 0V | 00:00:00 | 00:00:00 | 00:00:00 | |
| LZ4TU-5 | 2026-09-04 12:04:59 | 43.75742 | 22.59527 | 109° | 20km/h | 17549m | 6.2m/s | -58.3°C | 1.4% | 0hPa | 0V | 00:00:00 | 00:00:00 | 00:00:00 | |
| LZ4TU-5 | 2026-09-04 12:03:11 | 43.76087 | 22.58465 | 102° | 40km/h | 16942m | 4.9m/s | -57.2°C | 1.2% | 0hPa | 0V | 00:00:00 | 00:00:00 | 00:00:00 | |
| LZ4TU-5 | 2026-09-04 12:03:06 | 43.76092 | 22.58436 | 157° | 16km/h | 16913m | 5.4m/s | -56.9°C | 1.3% | 0hPa | 0V | 00:00:00 | 00:00:00 | 00:00:00 | |
| LZ4TU-5 | 2026-09-04 12:01:22 | 43.76268 | 22.57679 | 121° | 27km/h | 16334m | 4.9m/s | -57.4°C | 1.8% | 0hPa | 0V | 00:00:00 | 00:00:00 | 00:00:00 | |
| LZ4TU-5 | 2026-09-04 12:01:18 | 43.76273 | 22.57648 | 94° | 27km/h | 16311m | 4.9m/s | -57.3°C | 1.8% | 0hPa | 0V | 00:00:00 | 00:00:00 | 00:00:00 | |
| LZ4TU-5 | 2026-09-04 11:59:29 | 43.76776 | 22.56896 | 163° | 33km/h | 15704m | 6.2m/s | -56.0°C | 2.4% | 0hPa | 0V | 00:00:00 | 00:00:00 | 00:00:00 | |
| LZ4TU-5 | 2026-09-04 11:59:24 | 43.76814 | 22.56877 | 138° | 35km/h | 15674m | 4.9m/s | -56.4°C | 2.5% | 0hPa | 0V | 00:00:00 | 00:00:00 | 00:00:00 | |
| LZ4TU-5 | 2026-09-04 11:57:34 | 43.77577 | 22.55710 | 115° | 38km/h | 15057m | 5.1m/s | -56.4°C | 0% | 0hPa | 0V | 00:00:00 | 00:00:00 | 00:00:00 | |
| LZ4TU-5 | 2026-09-04 11:57:29 | 43.77583 | 22.55641 | 90° | 44km/h | 15034m | 3.1m/s | -56.7°C | 3.2% | 0hPa | 0V | 00:00:00 | 00:00:00 | 00:00:00 | |
| LZ4TU-5 | 2026-09-04 11:55:44 | 43.77823 | 22.54867 | 153° | 26km/h | 14405m | 7.2m/s | -54.5°C | 5.0% | 0hPa | 0V | 00:00:00 | 00:00:00 | 00:00:00 | |
| LZ4TU-5 | 2026-09-04 11:55:40 | 43.77859 | 22.54840 | 137° | 40km/h | 14377m | 5.8m/s | -54.5°C | 0% | 0hPa | 0V | 00:00:00 | 00:00:00 | 00:00:00 | |
| LZ4TU-5 | 2026-09-04 11:53:49 | 43.79066 | 22.54360 | 164° | 73km/h | 13732m | 7.2m/s | -56.7°C | 17.5% | 0hPa | 0V | 00:00:00 | 00:00:00 | 00:00:00 | |
| LZ4TU-5 | 2026-09-04 11:53:45 | 43.79135 | 22.54328 | 165° | 68km/h | 13707m | 5.1m/s | -56.9°C | 18.2% | 0hPa | 0V | 00:00:00 | 00:00:00 | 00:00:00 | |
| LZ4TU-5 | 2026-09-04 11:51:54 | 43.81705 | 22.54113 | 175° | 115km/h | 13063m | 6.6m/s | -63.0°C | 43.8% | 0hPa | 0V | 00:00:00 | 00:00:00 | 00:00:00 | |
| LZ4TU-5 | 2026-09-04 11:51:49 | 43.81853 | 22.54119 | 185° | 115km/h | 13033m | 7.2m/s | -62.8°C | 43.6% | 0hPa | 0V | 00:00:00 | 00:00:00 | 00:00:00 | |
| LZ4TU-5 | 2026-09-04 11:49:55 | 43.85502 | 22.54356 | 186° | 139km/h | 12330m | 5.7m/s | -59.3°C | 38.5% | 0hPa | 0V | 00:00:00 | 00:00:00 | 00:00:00 | |
| LZ4TU-5 | 2026-09-04 11:49:51 | 43.85636 | 22.54383 | 192° | 130km/h | 12301m | 7.0m/s | -59.3°C | 0% | 0hPa | 0V | 00:00:00 | 00:00:00 | 00:00:00 | |
| LZ4TU-5 | 2026-09-04 11:48:09 | 43.89243 | 22.55097 | 199° | 141km/h | 11689m | 6.6m/s | -55.4°C | 49.6% | 0hPa | 0V | 00:00:00 | 00:00:00 | 00:00:00 | |
| LZ4TU-5 | 2026-09-04 11:48:04 | 43.89417 | 22.55142 | 187° | 141km/h | 11660m | 6.6m/s | -55.2°C | 49.9% | 0hPa | 0V | 00:00:00 | 00:00:00 | 00:00:00 | |
| LZ4TU-5 | 2026-09-04 11:46:15 | 43.93129 | 22.55799 | 180° | 137km/h | 11018m | 7.9m/s | -50.1°C | 51.3% | 0hPa | 0V | 00:00:00 | 00:00:00 | 00:00:00 | |
| LZ4TU-5 | 2026-09-04 11:44:24 | 43.96580 | 22.55932 | 186° | 130km/h | 10348m | 5.9m/s | -44.4°C | 43.0% | 0hPa | 0V | 00:00:00 | 00:00:00 | 00:00:00 | |
| LZ4TU-5 | 2026-09-04 11:44:19 | 43.96722 | 22.55953 | 187° | 95km/h | 10320m | 3.3m/s | -44.2°C | 41.4% | 0hPa | 0V | 00:00:00 | 00:00:00 | 00:00:00 | |
| LZ4TU-5 | 2026-09-04 11:42:49 | 43.99291 | 22.56429 | 191° | 104km/h | 9822m | 5.7m/s | -40.1°C | 37.4% | 0hPa | 0V | 00:00:00 | 00:00:00 | 00:00:00 | |
| LZ4TU-5 | 2026-09-04 11:42:43 | 43.99434 | 22.56469 | 196° | 100km/h | 9791m | 6.1m/s | -39.8°C | 36.7% | 0hPa | 0V | 00:00:00 | 00:00:00 | 00:00:00 | |
| LZ4TU-5 | 2026-09-04 11:41:07 | 44.01925 | 22.56869 | 175° | 80km/h | 9274m | 6.4m/s | -34.8°C | 29.4% | 0hPa | 0V | 00:00:00 | 00:00:00 | 00:00:00 | |
| LZ4TU-5 | 2026-09-04 11:41:02 | 44.02048 | 22.56875 | 191° | 120km/h | 9246m | 6.0m/s | -34.5°C | 29.3% | 0hPa | 0V | 00:00:00 | 00:00:00 | 00:00:00 | |
| LZ4TU-5 | 2026-09-04 11:38:59 | 44.05231 | 22.57038 | 183° | 89km/h | 8579m | 7.3m/s | -28.4°C | 0% | 0hPa | 0V | 00:00:00 | 00:00:00 | 00:00:00 | |
| LZ4TU-5 | 2026-09-04 11:38:54 | 44.05353 | 22.57045 | 181° | 97km/h | 8547m | 7.1m/s | -28.1°C | 29.4% | 0hPa | 0V | 00:00:00 | 00:00:00 | 00:00:00 | |
| LZ4TU-5 | 2026-09-04 11:37:17 | 44.07587 | 22.57214 | 193° | 100km/h | 8017m | 4.9m/s | -24.1°C | 33.7% | 0hPa | 0V | 00:00:00 | 00:00:00 | 00:00:00 | |
| LZ4TU-5 | 2026-09-04 11:37:12 | 44.07689 | 22.57254 | 189° | 78km/h | 7995m | 4.9m/s | -24.0°C | 0% | 0hPa | 0V | 00:00:00 | 00:00:00 | 00:00:00 | |
| LZ4TU-5 | 2026-09-04 11:35:23 | 44.10231 | 22.57507 | 188° | 93km/h | 7434m | 6.1m/s | -20.4°C | 45.5% | 0hPa | 0V | 00:00:00 | 00:00:00 | 00:00:00 | |
| LZ4TU-5 | 2026-09-04 11:35:18 | 44.10328 | 22.57534 | 187° | 82km/h | 7408m | 5.0m/s | -20.2°C | 43.9% | 0hPa | 0V | 00:00:00 | 00:00:00 | 00:00:00 | |
| LZ4TU-5 | 2026-09-04 11:33:58 | 44.12220 | 22.57687 | 187° | 95km/h | 6966m | 5.1m/s | -16.9°C | 41.1% | 0hPa | 0V | 00:00:00 | 00:00:00 | 00:00:00 | |
| LZ4TU-5 | 2026-09-04 11:32:49 | 44.13755 | 22.57712 | 182° | 86km/h | 6519m | 6.9m/s | -14.4°C | 44.9% | 0hPa | 0V | 00:00:00 | 00:00:00 | 00:00:00 | |
| LZ4TU-5 | 2026-09-04 11:32:45 | 44.13830 | 22.57704 | 178° | 62km/h | 6496m | 6.0m/s | -14.3°C | 0% | 0hPa | 0V | 00:00:00 | 00:00:00 | 00:00:00 | |
| LZ4TU-5 | 2026-09-04 11:31:39 | 44.15099 | 22.57638 | 194° | 88km/h | 6115m | 6.7m/s | -12.2°C | 45.0% | 0hPa | 0V | 00:00:00 | 00:00:00 | 00:00:00 | |
| LZ4TU-5 | 2026-09-04 11:31:34 | 44.15197 | 22.57648 | 163° | 69km/h | 6089m | 5.6m/s | -11.9°C | 44.2% | 0hPa | 0V | 00:00:00 | 00:00:00 | 00:00:00 | |
| LZ4TU-5 | 2026-09-04 11:30:27 | 44.16367 | 22.57687 | 182° | 62km/h | 5748m | 7.1m/s | -10.7°C | 0% | 0hPa | 0V | 00:00:00 | 00:00:00 | 00:00:00 | |
| LZ4TU-5 | 2026-09-04 11:30:21 | 44.16451 | 22.57685 | 193° | 78km/h | 5723m | 4.5m/s | -10.6°C | 54.8% | 0hPa | 0V | 00:00:00 | 00:00:00 | 00:00:00 | |
| LZ4TU-5 | 2026-09-04 11:29:14 | 44.17663 | 22.57644 | 182° | 88km/h | 5425m | 5.3m/s | -9.7°C | 55.9% | 0hPa | 0V | 00:00:00 | 00:00:00 | 00:00:00 | |
| LZ4TU-5 | 2026-09-04 11:29:09 | 44.17755 | 22.57663 | 176° | 51km/h | 5404m | 7.1m/s | -9.7°C | 53.5% | 0hPa | 0V | 00:00:00 | 00:00:00 | 00:00:00 | |
| LZ4TU-5 | 2026-09-04 11:27:59 | 44.18708 | 22.57487 | 142° | 40km/h | 4977m | 5.8m/s | -7.8°C | 26.9% | 0hPa | 0V | 00:00:00 | 00:00:00 | 00:00:00 | |
| LZ4TU-5 | 2026-09-04 11:27:54 | 44.18763 | 22.57472 | 192° | 58km/h | 4953m | 5.5m/s | -7.5°C | 26.1% | 0hPa | 0V | 00:00:00 | 00:00:00 | 00:00:00 | |
| LZ4TU-5 | 2026-09-04 11:26:36 | 44.19483 | 22.57246 | 168° | 33km/h | 4438m | 7.2m/s | -4.4°C | 0% | 0hPa | 0V | 00:00:00 | 00:00:00 | 00:00:00 | |
| LZ4TU-5 | 2026-09-04 11:25:32 | 44.19976 | 22.57114 | 182° | 44km/h | 3940m | 8.9m/s | -1.9°C | 43.6% | 0hPa | 0V | 00:00:00 | 00:00:00 | 00:00:00 | |
| LZ4TU-5 | 2026-09-04 11:25:28 | 44.20028 | 22.57116 | 176° | 53km/h | 3915m | 6.4m/s | -1.8°C | 50.2% | 0hPa | 0V | 00:00:00 | 00:00:00 | 00:00:00 | |
| LZ4TU-5 | 2026-09-04 11:24:24 | 44.20584 | 22.56933 | 183° | 31km/h | 3492m | 6.3m/s | 0.7°C | 57.9% | 0hPa | 0V | 00:00:00 | 00:00:00 | 00:00:00 | |
| LZ4TU-5 | 2026-09-04 11:24:19 | 44.20620 | 22.56907 | 139° | 49km/h | 3461m | 5.8m/s | 1.1°C | 0% | 0hPa | 0V | 00:00:00 | 00:00:00 | 00:00:00 | |
| LZ4TU-5 | 2026-09-04 11:23:16 | 44.21124 | 22.56515 | 166° | 49km/h | 3099m | 4.5m/s | 4.1°C | 51.6% | 0hPa | 0V | 00:00:00 | 00:00:00 | 00:00:00 | |
| LZ4TU-5 | 2026-09-04 11:23:11 | 44.21155 | 22.56508 | 170° | 16km/h | 3075m | 5.4m/s | 4.3°C | 50.7% | 0hPa | 0V | 00:00:00 | 00:00:00 | 00:00:00 | |
| LZ4TU-5 | 2026-09-04 11:22:09 | 44.21585 | 22.56155 | 163° | 31km/h | 2745m | 5.9m/s | 7.1°C | 49.6% | 0hPa | 0V | 00:00:00 | 00:00:00 | 00:00:00 | |
| LZ4TU-5 | 2026-09-04 11:22:05 | 44.21606 | 22.56138 | 151° | 27km/h | 2725m | 4.8m/s | 7.1°C | 0% | 0hPa | 0V | 00:00:00 | 00:00:00 | 00:00:00 | |
| LZ4TU-5 | 2026-09-04 11:21:01 | 44.22171 | 22.56094 | 179° | 29km/h | 2411m | 6.3m/s | 7.7°C | 62.9% | 0hPa | 0V | 00:00:00 | 00:00:00 | 00:00:00 | |
| LZ4TU-5 | 2026-09-04 11:20:57 | 44.22202 | 22.56087 | 179° | 37km/h | 2388m | 5.1m/s | 7.9°C | 64.1% | 0hPa | 0V | 00:00:00 | 00:00:00 | 00:00:00 | |
| LZ4TU-5 | 2026-09-04 11:19:56 | 44.22688 | 22.55932 | 170° | 26km/h | 2033m | 5.1m/s | 10.9°C | 58.4% | 0hPa | 0V | 00:00:00 | 00:00:00 | 00:00:00 | |
| LZ4TU-5 | 2026-09-04 11:19:51 | 44.22725 | 22.55897 | 151° | 35km/h | 2009m | 4.9m/s | 11.1°C | 0% | 0hPa | 0V | 00:00:00 | 00:00:00 | 00:00:00 | |
| LZ4TU-5 | 2026-09-04 11:18:49 | 44.23087 | 22.55642 | 131° | 29km/h | 1570m | 8.3m/s | 15.3°C | 48.8% | 0hPa | 0V | 00:00:00 | 00:00:00 | 00:00:00 | |
| LZ4TU-5 | 2026-09-04 11:18:45 | 44.23106 | 22.55623 | 164° | 15km/h | 1535m | 7.9m/s | 15.6°C | 48.1% | 0hPa | 0V | 00:00:00 | 00:00:00 | 00:00:00 |